createdAt,value
2023-03-02T00:02:25.229Z,1.00
2023-03-02T00:04:58.989Z,1.00
2023-03-02T00:07:34.126Z,1.00
2023-03-02T00:10:06.350Z,1.00
2023-03-02T00:12:38.088Z,0.90
2023-03-02T00:15:10.299Z,0.90
2023-03-02T00:17:42.205Z,0.80
2023-03-02T00:20:14.415Z,0.80
2023-03-02T00:22:46.916Z,0.80
2023-03-02T00:25:19.087Z,0.80
2023-03-02T00:27:50.793Z,0.80
2023-03-02T00:30:22.592Z,0.80
2023-03-02T00:32:54.389Z,0.80
2023-03-02T00:35:27.104Z,0.90
2023-03-02T00:37:58.824Z,0.80
2023-03-02T00:40:30.783Z,0.70
2023-03-02T00:43:02.568Z,0.80
2023-03-02T00:45:34.325Z,0.90
2023-03-02T00:48:06.342Z,0.90
2023-03-02T00:50:41.021Z,0.80
2023-03-02T00:53:12.753Z,0.90
2023-03-02T00:55:53.684Z,0.80
2023-03-02T00:58:30.544Z,0.80
2023-03-02T01:01:08.692Z,0.80
2023-03-02T01:03:40.400Z,0.70
2023-03-02T01:06:18.005Z,0.70
2023-03-02T01:08:50.085Z,0.70
2023-03-02T01:11:23.089Z,0.70
2023-03-02T01:13:54.808Z,0.70
2023-03-02T01:16:26.543Z,0.70
2023-03-02T01:18:58.326Z,0.70
2023-03-02T01:21:30.319Z,0.70
2023-03-02T01:24:02.143Z,0.70
2023-03-02T01:26:34.130Z,0.70
2023-03-02T01:29:06.109Z,0.70
2023-03-02T01:31:38.805Z,0.70
2023-03-02T01:34:10.753Z,0.70
2023-03-02T01:36:45.601Z,0.70
2023-03-02T01:39:17.453Z,0.70
2023-03-02T01:45:51.797Z,0.60
2023-03-02T01:48:29.263Z,0.60
2023-03-02T01:51:02.882Z,0.60
2023-03-02T01:53:37.230Z,0.60
2023-03-02T01:56:09.007Z,0.50
2023-03-02T01:58:40.776Z,0.50
2023-03-02T02:01:15.741Z,0.40
2023-03-02T02:03:50.600Z,0.50
2023-03-02T02:06:31.208Z,0.50
2023-03-02T02:09:05.221Z,0.40
2023-03-02T02:11:36.999Z,0.50
2023-03-02T02:14:08.957Z,0.50
2023-03-02T02:16:41.513Z,0.40
2023-03-02T02:19:34.609Z,0.40
2023-03-02T02:22:06.550Z,0.40
2023-03-02T02:24:53.348Z,0.40
2023-03-02T02:27:33.570Z,0.40
2023-03-02T02:30:07.269Z,0.40
2023-03-02T02:32:41.344Z,0.30
2023-03-02T02:35:21.375Z,0.30
2023-03-02T02:37:57.341Z,0.30
2023-03-02T02:40:53.839Z,0.30
2023-03-02T02:43:28.759Z,0.20
2023-03-02T02:46:01.635Z,0.30
2023-03-02T02:48:34.372Z,0.30
2023-03-02T02:51:08.833Z,0.30
2023-03-02T02:54:01.367Z,0.30
2023-03-02T02:56:36.478Z,0.30
2023-03-02T02:59:17.571Z,0.20
2023-03-02T03:01:49.977Z,0.20
2023-03-02T03:04:26.119Z,0.10
2023-03-02T03:07:00.656Z,0.20
2023-03-02T03:09:32.627Z,0.20
2023-03-02T03:12:08.658Z,0.20
2023-03-02T03:14:41.799Z,0.20
2023-03-02T03:17:13.707Z,0.10
2023-03-02T03:19:47.024Z,0.10
2023-03-02T03:22:18.808Z,0.10
2023-03-02T03:24:50.495Z,0.10
2023-03-02T03:27:22.196Z,0.10
2023-03-02T03:29:54.105Z,0.10
2023-03-02T03:32:25.984Z,0.10
2023-03-02T03:34:57.768Z,0.10
2023-03-02T03:37:29.721Z,0.10
2023-03-02T03:40:01.494Z,0.10
2023-03-02T03:42:33.355Z,0.10
2023-03-02T03:45:06.485Z,0.00
2023-03-02T03:47:38.299Z,0.00
2023-03-02T03:50:10.623Z,0.00
2023-03-02T03:52:42.318Z,0.00
2023-03-02T03:55:14.546Z,0.00
2023-03-02T03:57:46.363Z,0.00
2023-03-02T04:00:18.598Z,0.00
2023-03-02T04:02:50.957Z,0.00
2023-03-02T04:05:22.830Z,0.00
2023-03-02T04:07:54.601Z,0.00
2023-03-02T04:10:26.383Z,0.00
2023-03-02T04:12:58.204Z,-0.10
2023-03-02T04:15:30.093Z,-0.10
2023-03-02T04:18:02.042Z,-0.10
2023-03-02T04:20:33.832Z,-0.10
2023-03-02T04:23:05.616Z,-0.10
2023-03-02T04:25:37.410Z,-0.10
2023-03-02T04:28:09.131Z,0.00
2023-03-02T04:30:40.991Z,0.00
2023-03-02T04:33:12.736Z,0.10
2023-03-02T04:35:44.581Z,0.10
2023-03-02T04:38:16.467Z,0.10
2023-03-02T04:40:48.328Z,0.10
2023-03-02T04:43:19.980Z,0.20
2023-03-02T04:45:55.041Z,0.20
2023-03-02T04:48:27.082Z,0.20
2023-03-02T04:50:58.855Z,0.30
2023-03-02T04:53:30.640Z,0.30
2023-03-02T04:56:02.293Z,0.30
2023-03-02T04:58:34.029Z,0.40
2023-03-02T05:01:07.236Z,0.40
2023-03-02T05:03:38.996Z,0.40
2023-03-02T05:06:11.000Z,0.40
2023-03-02T05:08:43.984Z,0.40
2023-03-02T05:11:22.027Z,0.40
2023-03-02T05:13:57.343Z,0.40
2023-03-02T05:16:32.674Z,0.40
2023-03-02T05:19:07.143Z,0.40
2023-03-02T05:21:39.615Z,0.40
2023-03-02T05:24:12.753Z,0.40
2023-03-02T05:26:44.529Z,0.50
2023-03-02T05:29:16.263Z,0.40
2023-03-02T05:31:49.063Z,0.40
2023-03-02T05:34:20.906Z,0.40
2023-03-02T05:36:52.692Z,0.40
2023-03-02T05:39:24.488Z,0.40
2023-03-02T05:41:56.208Z,0.50
2023-03-02T05:44:27.960Z,0.40
2023-03-02T05:46:59.713Z,0.40
2023-03-02T05:49:31.488Z,0.50
2023-03-02T05:52:03.284Z,0.50
2023-03-02T05:54:35.002Z,0.50
2023-03-02T05:57:07.364Z,0.50
2023-03-02T05:59:39.096Z,0.50
2023-03-02T06:02:10.811Z,0.50
2023-03-02T06:04:44.384Z,0.60
2023-03-02T06:07:16.081Z,0.60
2023-03-02T06:09:47.761Z,0.60
2023-03-02T06:12:19.565Z,0.70
2023-03-02T06:14:51.309Z,0.70
2023-03-02T06:17:23.170Z,0.80
2023-03-02T06:19:54.886Z,0.80
2023-03-02T06:22:26.935Z,0.80
2023-03-02T06:24:58.607Z,0.90
2023-03-02T06:27:30.309Z,1.00
2023-03-02T06:30:02.383Z,0.90
2023-03-02T06:32:35.261Z,0.90
2023-03-02T06:35:07.977Z,0.90
2023-03-02T06:37:42.187Z,0.90
2023-03-02T06:40:15.368Z,1.00
2023-03-02T06:42:47.446Z,1.00
2023-03-02T06:45:19.313Z,1.10
2023-03-02T06:47:51.013Z,1.10
2023-03-02T06:50:22.905Z,1.10
2023-03-02T06:52:54.645Z,1.10
2023-03-02T06:55:27.004Z,1.10
2023-03-02T06:57:58.750Z,1.10
2023-03-02T07:00:30.558Z,1.20
2023-03-02T07:03:02.272Z,1.20
2023-03-02T07:05:33.961Z,1.20
2023-03-02T07:08:05.768Z,1.30
2023-03-02T07:10:37.991Z,1.30
2023-03-02T07:13:09.755Z,1.40
2023-03-02T07:15:41.595Z,1.30
2023-03-02T07:18:13.303Z,1.30
2023-03-02T07:20:44.996Z,1.30
2023-03-02T07:23:16.786Z,1.30
2023-03-02T07:25:48.596Z,1.40
2023-03-02T07:28:21.771Z,1.40
2023-03-02T07:30:54.137Z,1.40
2023-03-02T07:33:25.995Z,1.50
2023-03-02T07:35:57.960Z,1.50
2023-03-02T07:38:29.736Z,1.60
2023-03-02T07:41:05.669Z,1.60
2023-03-02T07:43:38.191Z,1.70
2023-03-02T07:46:10.436Z,1.70
2023-03-02T07:48:42.201Z,1.70
2023-03-02T07:51:13.944Z,1.60
2023-03-02T07:53:46.317Z,1.70
2023-03-02T07:56:18.752Z,1.70
2023-03-02T07:58:50.437Z,1.80
2023-03-02T08:01:22.274Z,1.80
2023-03-02T08:03:54.089Z,1.90
2023-03-02T08:06:25.826Z,2.00
2023-03-02T08:09:00.245Z,1.90
2023-03-02T08:11:32.579Z,1.90
2023-03-02T08:14:04.464Z,1.90
2023-03-02T08:16:36.260Z,2.00
2023-03-02T08:19:08.248Z,2.00
2023-03-02T08:21:40.045Z,2.00
2023-03-02T08:24:12.493Z,2.00
2023-03-02T08:26:44.192Z,2.00
2023-03-02T08:29:16.162Z,2.10
2023-03-02T08:31:47.997Z,2.10
2023-03-02T08:34:19.716Z,2.10
2023-03-02T08:36:51.410Z,2.20
2023-03-02T08:39:23.606Z,2.30
2023-03-02T08:41:55.451Z,2.30
2023-03-02T08:44:27.176Z,2.30
2023-03-02T08:46:58.926Z,2.30
2023-03-02T08:49:30.659Z,2.40
2023-03-02T08:52:02.411Z,2.40
2023-03-02T08:54:34.657Z,2.50
2023-03-02T08:57:11.467Z,2.60
2023-03-02T08:59:43.919Z,2.70
2023-03-02T09:02:15.699Z,2.70
2023-03-02T09:04:47.519Z,2.80
2023-03-02T09:07:19.322Z,2.90
2023-03-02T09:09:51.097Z,2.90
2023-03-02T09:12:22.827Z,2.90
2023-03-02T09:14:54.625Z,3.10
2023-03-02T09:17:26.288Z,3.20
2023-03-02T09:20:00.361Z,3.40
2023-03-02T09:22:32.085Z,3.60
2023-03-02T09:25:05.142Z,3.80
2023-03-02T09:27:36.836Z,3.90
2023-03-02T09:30:09.942Z,4.00
2023-03-02T09:32:42.039Z,4.00
2023-03-02T09:35:13.925Z,4.10
2023-03-02T09:37:45.773Z,4.30
2023-03-02T09:40:23.556Z,4.40
2023-03-02T09:43:08.900Z,4.80
2023-03-02T09:46:05.430Z,4.80
2023-03-02T09:49:13.745Z,4.70
2023-03-02T09:51:54.266Z,4.70
2023-03-02T09:54:26.179Z,4.80
2023-03-02T09:56:59.498Z,4.80
2023-03-02T09:59:33.240Z,4.90
2023-03-02T10:02:28.306Z,5.20
2023-03-02T10:05:04.397Z,5.30
2023-03-02T10:07:38.175Z,5.10
2023-03-02T10:10:10.005Z,5.20
2023-03-02T10:12:47.673Z,5.30
2023-03-02T10:15:35.696Z,5.50
2023-03-02T10:18:10.933Z,5.50
2023-03-02T10:20:51.581Z,5.30
2023-03-02T10:23:57.376Z,5.30
2023-03-02T10:26:42.908Z,5.20
2023-03-02T10:29:26.158Z,5.30
2023-03-02T10:32:23.605Z,5.70
2023-03-02T10:34:55.531Z,5.60
2023-03-02T10:37:30.798Z,5.60
2023-03-02T10:40:02.615Z,5.60
2023-03-02T10:42:37.784Z,5.70
2023-03-02T10:45:29.343Z,5.60
2023-03-02T10:48:09.150Z,5.70
2023-03-02T10:50:43.047Z,5.70
2023-03-02T10:53:18.774Z,5.90
2023-03-02T10:55:52.855Z,5.80
2023-03-02T10:58:33.482Z,5.80
2023-03-02T11:01:17.756Z,5.80
2023-03-02T11:04:01.780Z,5.90
2023-03-02T11:06:34.945Z,6.10
2023-03-02T11:09:07.549Z,6.30
2023-03-02T11:11:39.365Z,6.40
2023-03-02T11:14:16.609Z,6.40
2023-03-02T11:16:48.321Z,6.20
2023-03-02T11:19:31.040Z,6.20
2023-03-02T11:22:26.482Z,6.40
2023-03-02T11:25:01.752Z,6.30
2023-03-02T11:27:38.751Z,6.30
2023-03-02T11:30:16.142Z,6.20
2023-03-02T11:33:20.374Z,6.20
2023-03-02T11:35:59.178Z,6.20
2023-03-02T11:38:41.264Z,6.20
2023-03-02T11:41:29.687Z,6.20
2023-03-02T11:44:12.285Z,6.30
2023-03-02T11:46:48.700Z,6.30
2023-03-02T11:49:45.652Z,6.40
2023-03-02T11:52:20.499Z,6.60
2023-03-02T11:55:13.846Z,6.80
2023-03-02T12:00:43.301Z,7.30
2023-03-02T12:03:14.986Z,7.20
2023-03-02T12:06:00.776Z,7.20
2023-03-02T12:08:34.668Z,7.20
2023-03-02T12:11:17.763Z,7.30
2023-03-02T12:13:49.567Z,7.50
2023-03-02T12:16:36.228Z,7.70
2023-03-02T12:19:17.037Z,7.60
2023-03-02T12:22:09.814Z,7.60
2023-03-02T12:24:44.150Z,7.40
2023-03-02T12:27:16.565Z,7.50
2023-03-02T12:29:51.575Z,7.80
2023-03-02T12:32:28.070Z,7.90
2023-03-02T12:35:08.802Z,7.70
2023-03-02T12:38:01.208Z,7.80
2023-03-02T12:40:58.341Z,7.90
2023-03-02T12:43:38.100Z,7.60
2023-03-02T12:46:28.376Z,7.40
2023-03-02T12:49:27.348Z,7.20
2023-03-02T12:52:27.550Z,7.10
2023-03-02T12:55:20.119Z,7.20
2023-03-02T12:57:54.516Z,7.20
2023-03-02T13:00:30.140Z,7.20
2023-03-02T13:03:02.456Z,7.20
2023-03-02T13:05:35.965Z,7.20
2023-03-02T13:08:24.329Z,7.20
2023-03-02T13:11:01.854Z,7.10
2023-03-02T13:13:51.545Z,6.80
2023-03-02T13:16:31.234Z,6.80
2023-03-02T13:19:16.495Z,6.80
2023-03-02T13:21:48.567Z,6.70
2023-03-02T13:24:34.507Z,6.60
2023-03-02T13:27:17.731Z,6.80
2023-03-02T13:29:52.072Z,6.90
2023-03-02T13:32:35.119Z,6.90
2023-03-02T13:35:19.181Z,6.80
2023-03-02T13:38:01.572Z,6.80
2023-03-02T13:40:39.503Z,6.90
2023-03-02T13:43:29.365Z,7.10
2023-03-02T13:46:02.569Z,7.10
2023-03-02T13:48:34.600Z,7.10
2023-03-02T13:51:18.175Z,7.10
2023-03-02T13:53:56.956Z,7.00
2023-03-02T13:56:34.389Z,7.00
2023-03-02T13:59:14.531Z,6.80
2023-03-02T14:01:47.358Z,6.60
2023-03-02T14:04:24.353Z,6.60
2023-03-02T14:06:56.217Z,6.60
2023-03-02T14:09:28.188Z,6.60
2023-03-02T14:12:00.014Z,6.70
2023-03-02T14:14:38.856Z,6.80
2023-03-02T14:17:16.752Z,6.80
2023-03-02T14:19:52.596Z,6.90
2023-03-02T14:22:27.285Z,7.00
2023-03-02T14:24:58.977Z,6.80
2023-03-02T14:27:31.400Z,6.80
2023-03-02T14:30:18.170Z,6.80
2023-03-02T14:32:51.119Z,7.00
2023-03-02T14:35:24.920Z,7.10
2023-03-02T14:37:56.760Z,7.10
2023-03-02T14:40:28.631Z,7.10
2023-03-02T14:43:00.404Z,7.20
2023-03-02T14:45:32.141Z,7.30
2023-03-02T14:48:04.049Z,7.40
2023-03-02T14:50:40.545Z,7.40
2023-03-02T14:53:19.658Z,7.40
2023-03-02T14:55:51.414Z,7.30
2023-03-02T14:58:34.104Z,7.30
2023-03-02T15:01:05.863Z,7.30
2023-03-02T15:03:37.680Z,7.20
2023-03-02T15:06:26.999Z,7.00
2023-03-02T15:09:00.106Z,7.00
2023-03-02T15:11:32.226Z,7.00
2023-03-02T15:14:04.218Z,7.00
2023-03-02T15:16:36.016Z,6.80
2023-03-02T15:19:08.831Z,6.70
2023-03-02T15:21:44.694Z,6.60
2023-03-02T15:24:16.431Z,6.70
2023-03-02T15:26:49.102Z,6.80
2023-03-02T15:29:21.252Z,6.90
2023-03-02T15:31:53.221Z,6.90
2023-03-02T15:34:25.098Z,7.00
2023-03-02T15:36:56.801Z,6.90
2023-03-02T15:39:28.534Z,6.70
2023-03-02T15:42:01.069Z,6.60
2023-03-02T15:44:33.471Z,6.50
2023-03-02T15:47:05.696Z,6.30
2023-03-02T15:49:37.515Z,6.20
2023-03-02T15:52:11.255Z,6.30
2023-03-02T15:54:43.052Z,6.30
2023-03-02T15:57:15.150Z,6.30
2023-03-02T15:59:47.944Z,6.30
2023-03-02T16:02:19.692Z,6.10
2023-03-02T16:04:51.360Z,6.10
2023-03-02T16:07:23.041Z,6.00
2023-03-02T16:09:54.810Z,5.90
2023-03-02T16:12:26.614Z,6.00
2023-03-02T16:14:58.272Z,6.00
2023-03-02T16:17:30.004Z,6.00
2023-03-02T16:20:01.711Z,6.10
2023-03-02T16:22:33.382Z,6.10
2023-03-02T16:25:05.464Z,6.10
2023-03-02T16:27:37.180Z,5.90
2023-03-02T16:30:09.589Z,5.80
2023-03-02T16:32:41.508Z,5.70
2023-03-02T16:35:13.333Z,5.70
2023-03-02T16:37:45.127Z,5.70
2023-03-02T16:40:17.028Z,5.70
2023-03-02T16:42:49.025Z,5.70
2023-03-02T16:45:21.805Z,5.60
2023-03-02T16:47:53.709Z,5.60
2023-03-02T16:50:25.393Z,5.60
2023-03-02T16:52:58.207Z,5.60
2023-03-02T16:55:30.248Z,5.60
2023-03-02T16:58:02.006Z,5.60
2023-03-02T17:00:33.824Z,5.50
2023-03-02T17:03:06.309Z,5.50
2023-03-02T17:05:42.564Z,5.40
2023-03-02T17:08:15.752Z,5.30
2023-03-02T17:10:47.450Z,5.30
2023-03-02T17:13:19.262Z,5.20
2023-03-02T17:15:51.080Z,5.20
2023-03-02T17:18:23.192Z,5.10
2023-03-02T17:20:57.642Z,5.00
2023-03-02T17:23:31.171Z,4.90
2023-03-02T17:26:02.850Z,4.80
2023-03-02T17:28:34.718Z,4.70
2023-03-02T17:31:06.694Z,4.70
2023-03-02T17:33:38.843Z,4.60
2023-03-02T17:36:12.195Z,4.60
2023-03-02T17:38:44.018Z,4.50
2023-03-02T17:41:15.784Z,4.40
2023-03-02T17:43:47.547Z,4.30
2023-03-02T17:46:22.746Z,4.30
2023-03-02T17:48:56.990Z,4.20
2023-03-02T17:51:29.633Z,4.20
2023-03-02T17:54:01.400Z,4.10
2023-03-02T17:56:33.274Z,4.00
2023-03-02T17:59:05.457Z,3.90
2023-03-02T18:01:37.227Z,3.80
2023-03-02T18:04:08.943Z,3.80
2023-03-02T18:06:40.761Z,3.60
2023-03-02T18:09:12.581Z,3.50
2023-03-02T18:11:45.170Z,3.40
2023-03-02T18:14:19.998Z,3.30
2023-03-02T18:16:51.702Z,3.20
2023-03-02T18:19:23.389Z,3.10
2023-03-02T18:21:55.086Z,3.10
2023-03-02T18:24:26.756Z,3.00
2023-03-02T18:26:58.454Z,3.00
2023-03-02T18:29:30.554Z,3.10
2023-03-02T18:32:02.430Z,3.00
2023-03-02T18:34:34.246Z,2.90
2023-03-02T18:37:05.999Z,2.90
2023-03-02T18:39:37.883Z,2.90
2023-03-02T18:42:12.276Z,2.80
2023-03-02T18:44:44.322Z,2.80
2023-03-02T18:47:17.940Z,2.70
2023-03-02T18:49:49.844Z,2.60
2023-03-02T18:52:21.655Z,2.50
2023-03-02T18:54:57.717Z,2.40
2023-03-02T18:57:29.574Z,2.40
2023-03-02T19:00:02.167Z,2.30
2023-03-02T19:02:34.388Z,2.30
2023-03-02T19:05:06.280Z,2.30
2023-03-02T19:07:38.001Z,2.30
2023-03-02T19:10:10.445Z,2.20
2023-03-02T19:12:42.433Z,2.20
2023-03-02T19:15:14.287Z,2.10
2023-03-02T19:17:46.868Z,2.10
2023-03-02T19:20:20.896Z,2.00
2023-03-02T19:22:53.164Z,2.00
2023-03-02T19:25:25.011Z,1.90
2023-03-02T19:27:56.862Z,1.80
2023-03-02T19:30:28.708Z,1.80
2023-03-02T19:33:01.864Z,1.80
2023-03-02T19:35:34.237Z,1.70
2023-03-02T19:38:06.943Z,1.70
2023-03-02T19:40:38.821Z,1.60
2023-03-02T19:43:10.703Z,1.60
2023-03-02T19:45:42.428Z,1.50
2023-03-02T19:48:14.363Z,1.50
2023-03-02T19:50:46.160Z,1.50
2023-03-02T19:53:17.935Z,1.50
2023-03-02T19:55:51.373Z,1.40
2023-03-02T19:58:23.678Z,1.40
2023-03-02T20:00:55.776Z,1.30
2023-03-02T20:03:27.982Z,1.30
2023-03-02T20:05:59.809Z,1.20
2023-03-02T20:08:31.514Z,1.20
2023-03-02T20:11:03.327Z,1.20
2023-03-02T20:13:35.929Z,1.20
2023-03-02T20:16:08.645Z,1.10
2023-03-02T20:18:42.204Z,1.10
2023-03-02T20:21:14.005Z,1.10
2023-03-02T20:23:46.368Z,1.10
2023-03-02T20:26:18.629Z,1.10
2023-03-02T20:28:52.079Z,1.10
2023-03-02T20:31:24.859Z,1.10
2023-03-02T20:33:56.852Z,1.00
2023-03-02T20:36:32.073Z,1.00
2023-03-02T20:39:12.571Z,0.90
2023-03-02T20:41:45.440Z,0.90
2023-03-02T20:44:18.212Z,0.90
2023-03-02T20:46:57.174Z,0.90
2023-03-02T20:49:30.921Z,0.90
2023-03-02T20:52:03.625Z,0.90
2023-03-02T20:54:38.806Z,0.90
2023-03-02T20:57:17.131Z,0.90
2023-03-02T20:59:49.512Z,0.90
2023-03-02T21:02:21.322Z,0.90
2023-03-02T21:04:53.353Z,0.80
2023-03-02T21:07:25.230Z,0.80
2023-03-02T21:09:57.085Z,0.80
2023-03-02T21:12:28.902Z,0.80
2023-03-02T21:15:02.139Z,0.80
2023-03-02T21:17:33.967Z,0.80
2023-03-02T21:20:06.277Z,0.80
2023-03-02T21:22:38.323Z,0.70
2023-03-02T21:25:10.657Z,0.70
2023-03-02T21:27:43.834Z,0.70
2023-03-02T21:30:23.739Z,0.70
2023-03-02T21:32:56.159Z,0.70
2023-03-02T21:35:28.133Z,0.80
2023-03-02T21:38:04.763Z,0.80
2023-03-02T21:40:46.163Z,0.80
2023-03-02T21:43:18.339Z,0.90
2023-03-02T21:45:51.172Z,0.90
2023-03-02T21:48:23.236Z,0.90
2023-03-02T21:50:55.106Z,1.00
2023-03-02T21:53:26.896Z,1.10
2023-03-02T21:55:58.559Z,1.00
2023-03-02T21:58:30.437Z,1.10
2023-03-02T22:01:02.513Z,1.10
2023-03-02T22:03:34.340Z,1.10
2023-03-02T22:06:06.260Z,1.10
2023-03-02T22:08:39.219Z,1.10
2023-03-02T22:11:25.254Z,1.10
2023-03-02T22:13:59.181Z,1.20
2023-03-02T22:16:41.224Z,1.30
2023-03-02T22:19:39.754Z,1.40
2023-03-02T22:22:30.466Z,1.40
2023-03-02T22:25:02.517Z,1.40
2023-03-02T22:27:36.114Z,1.40
2023-03-02T22:30:37.561Z,1.40
2023-03-02T22:33:21.659Z,1.40
2023-03-02T22:36:01.827Z,1.50
2023-03-02T22:38:33.647Z,1.50
2023-03-02T22:41:12.955Z,1.50
2023-03-02T22:43:45.853Z,1.50
2023-03-02T22:46:20.559Z,1.50
2023-03-02T22:48:53.542Z,1.50
2023-03-02T22:51:30.457Z,1.50
2023-03-02T22:54:02.225Z,1.50
2023-03-02T22:56:42.535Z,1.50
2023-03-02T22:59:28.261Z,1.50
2023-03-02T23:02:13.044Z,1.60
2023-03-02T23:04:46.940Z,1.60
2023-03-02T23:07:21.357Z,1.70
2023-03-02T23:09:53.259Z,1.70
2023-03-02T23:12:28.281Z,1.70
2023-03-02T23:15:00.017Z,1.70
2023-03-02T23:17:36.254Z,1.70
2023-03-02T23:20:13.868Z,1.70
2023-03-02T23:22:45.723Z,1.60
2023-03-02T23:25:17.809Z,1.60
2023-03-02T23:27:49.470Z,1.70
2023-03-02T23:30:22.514Z,1.60
2023-03-02T23:32:54.208Z,1.60
2023-03-02T23:35:27.037Z,1.60
2023-03-02T23:37:59.412Z,1.60
2023-03-02T23:40:31.226Z,1.60
2023-03-02T23:43:03.026Z,1.60
2023-03-02T23:45:34.752Z,1.60
2023-03-02T23:48:06.604Z,1.60
2023-03-02T23:50:38.295Z,1.60
2023-03-02T23:53:10.326Z,1.60
2023-03-02T23:55:47.615Z,1.60
2023-03-02T23:58:19.460Z,1.60
